Time;durP1;ratioP1;P1;durP2;ratioP2;P2;SDS_P1;SDS_P2;PMS_P1;PMS_P2;Temp;Humidity;BMP_temperature;BMP_pressure;BME280_temperature;BME280_humidity;BME280_pressure;Samples;Min_cycle;Max_cycle;Signal;HPM_P1;HPM_P2
2021/05/18 00:00:58;;;;;;;10.73;1.30;;;36.30;17.30;;;;;;5039722;28;20078;-56
2021/05/18 00:03:25;;;;;;;2.75;1.20;;;36.20;17.30;;;;;;5041391;28;20488;-59
2021/05/18 00:05:57;;;;;;;7.22;1.25;;;36.10;17.20;;;;;;5038401;28;20151;-59
2021/05/18 00:08:26;;;;;;;5.30;1.35;;;36.10;17.50;;;;;;5039577;28;20115;-59
2021/05/18 00:13:43;;;;;;;8.95;1.08;;;36.00;17.60;;;;;;5040388;28;20064;-59
2021/05/18 00:16:10;;;;;;;6.35;1.40;;;36.10;17.70;;;;;;5042354;28;20076;-58
2021/05/18 00:18:37;;;;;;;5.90;1.20;;;36.10;17.50;;;;;;5040119;28;20101;-60
2021/05/18 00:21:05;;;;;;;5.00;0.95;;;36.10;17.60;;;;;;5042583;28;20081;-55
2021/05/18 00:23:32;;;;;;;7.85;1.10;;;36.10;17.20;;;;;;5039757;28;20133;-53
2021/05/18 00:26:00;;;;;;;8.38;1.38;;;36.00;17.10;;;;;;5040035;28;20469;-57
2021/05/18 00:28:26;;;;;;;8.15;1.70;;;35.90;17.30;;;;;;5042935;28;20077;-58
2021/05/18 00:30:53;;;;;;;5.35;1.35;;;35.90;17.30;;;;;;5041956;28;20143;-55
2021/05/18 00:33:22;;;;;;;4.15;1.23;;;35.80;17.00;;;;;;5041842;28;20111;-58
2021/05/18 00:35:50;;;;;;;4.45;1.23;;;35.80;17.20;;;;;;5039140;28;20082;-60
2021/05/18 00:38:19;;;;;;;5.32;1.20;;;35.80;17.30;;;;;;5039397;28;20109;-60
2021/05/18 00:40:47;;;;;;;8.55;1.55;;;35.60;17.50;;;;;;5041213;28;20066;-57
2021/05/18 00:43:14;;;;;;;5.93;1.60;;;35.60;18.30;;;;;;5054347;28;20427;-56
2021/05/18 00:45:46;;;;;;;4.57;1.20;;;35.60;18.00;;;;;;5039905;28;20151;-57
2021/05/18 00:48:14;;;;;;;3.42;1.05;;;35.60;18.70;;;;;;5040734;28;20531;-58
2021/05/18 00:50:45;;;;;;;4.68;1.13;;;35.60;17.90;;;;;;5039727;28;20219;-59
2021/05/18 00:53:12;;;;;;;3.15;1.20;;;35.40;18.00;;;;;;5054919;28;20140;-58
2021/05/18 01:01:19;;;;;;;6.18;1.10;;;35.40;17.80;;;;;;5016544;28;20108;-57
2021/05/18 01:03:48;;;;;;;7.70;1.27;;;35.20;18.00;;;;;;5017098;28;20093;-59
2021/05/18 01:06:21;;;;;;;4.65;1.52;;;35.20;18.20;;;;;;5028330;28;20089;-58
2021/05/18 01:08:51;;;;;;;5.13;1.27;;;35.00;18.20;;;;;;5042204;28;20097;-56
2021/05/18 01:11:24;;;;;;;7.28;1.60;;;34.90;18.40;;;;;;5039440;28;20470;-58
2021/05/18 01:14:00;;;;;;;5.60;1.45;;;35.00;18.80;;;;;;5038673;28;20117;-58
2021/05/18 01:16:33;;;;;;;10.93;1.45;;;34.80;18.50;;;;;;5040615;28;20127;-58
2021/05/18 01:19:00;;;;;;;4.18;1.00;;;34.60;18.80;;;;;;5039209;28;20070;-60
2021/05/18 01:21:27;;;;;;;4.47;1.33;;;34.50;19.00;;;;;;5038943;28;20082;-57
2021/05/18 01:23:54;;;;;;;5.57;1.70;;;34.50;19.50;;;;;;5042485;28;20101;-57
2021/05/18 01:26:21;;;;;;;8.45;1.60;;;34.40;19.10;;;;;;5037758;28;20073;-57
2021/05/18 01:28:47;;;;;;;8.02;1.30;;;34.30;19.30;;;;;;5038306;28;20528;-55
2021/05/18 01:31:19;;;;;;;8.82;1.67;;;34.20;19.20;;;;;;5042758;28;20108;-56
2021/05/18 01:33:45;;;;;;;12.57;1.45;;;34.10;19.30;;;;;;5041159;28;20086;-56
2021/05/18 01:36:15;;;;;;;8.20;1.40;;;34.00;19.40;;;;;;5036793;28;20085;-58
2021/05/18 01:38:54;;;;;;;7.22;1.52;;;34.00;19.60;;;;;;5038280;28;20070;-58
2021/05/18 01:44:08;;;;;;;11.77;1.52;;;34.10;19.00;;;;;;5041211;28;20119;-54
2021/05/18 01:46:34;;;;;;;8.18;1.42;;;34.50;18.90;;;;;;5038680;28;20085;-55
2021/05/18 01:49:05;;;;;;;10.55;1.58;;;34.30;19.20;;;;;;5040551;28;20396;-56
2021/05/18 01:51:35;;;;;;;7.45;1.65;;;34.10;19.20;;;;;;5041222;28;20436;-54
2021/05/18 01:54:24;;;;;;;8.15;1.30;;;33.90;19.70;;;;;;5039143;28;20132;-56
2021/05/18 01:59:24;;;;;;;9.73;1.98;;;33.60;20.00;;;;;;5042573;28;20098;-55
2021/05/18 02:01:57;;;;;;;6.35;1.25;;;33.40;20.40;;;;;;5037268;28;20105;-53
2021/05/18 02:04:36;;;;;;;6.78;1.50;;;33.30;20.70;;;;;;5038342;28;20085;-57
2021/05/18 02:07:23;;;;;;;3.33;1.20;;;33.00;20.30;;;;;;5036583;28;20535;-58
2021/05/18 02:09:50;;;;;;;14.20;1.52;;;32.80;20.60;;;;;;5036830;28;20183;-55
2021/05/18 02:12:17;;;;;;;11.80;2.50;;;32.60;20.80;;;;;;5038220;28;20484;-53
2021/05/18 02:14:47;;;;;;;17.35;2.40;;;32.50;21.10;;;;;;5036905;28;20152;-56
2021/05/18 02:17:25;;;;;;;8.95;2.67;;;32.40;21.30;;;;;;5038417;28;20089;-55
2021/05/18 02:20:08;;;;;;;19.77;2.00;;;32.30;21.80;;;;;;5040865;28;20486;-56
2021/05/18 02:25:25;;;;;;;4.97;1.65;;;32.10;21.90;;;;;;5037474;28;20084;-55
2021/05/18 02:27:54;;;;;;;9.75;1.77;;;31.90;22.00;;;;;;5039159;28;20509;-58
2021/05/18 02:30:22;;;;;;;14.35;2.40;;;31.80;22.20;;;;;;5038517;28;20184;-57
2021/05/18 02:32:50;;;;;;;8.82;2.35;;;31.80;22.30;;;;;;5041587;28;20082;-55
2021/05/18 02:35:17;;;;;;;20.23;1.98;;;31.60;22.40;;;;;;5041275;28;20116;-56
2021/05/18 02:37:45;;;;;;;13.98;2.00;;;31.50;22.60;;;;;;5038807;28;20156;-55
2021/05/18 02:40:22;;;;;;;7.03;1.60;;;31.50;22.70;;;;;;5037941;28;20532;-56
2021/05/18 02:42:50;;;;;;;11.27;1.70;;;31.40;22.90;;;;;;5038010;28;20088;-58
2021/05/18 02:45:30;;;;;;;7.90;1.60;;;31.30;23.20;;;;;;5040867;28;20132;-57
2021/05/18 02:50:43;;;;;;;9.25;1.70;;;31.10;23.20;;;;;;5035999;28;20104;-57
2021/05/18 02:53:09;;;;;;;14.48;2.05;;;31.00;23.40;;;;;;5038114;28;20124;-56
2021/05/18 02:58:03;;;;;;;14.75;2.00;;;30.90;23.80;;;;;;5037473;28;20078;-60
2021/05/18 03:00:30;;;;;;;8.52;2.08;;;30.80;23.90;;;;;;5036583;28;20121;-55
2021/05/18 03:02:56;;;;;;;27.30;2.40;;;30.80;24.00;;;;;;5042209;28;20486;-55
2021/05/18 03:05:25;;;;;;;17.85;2.17;;;30.70;24.00;;;;;;5039027;28;20459;-58
2021/05/18 03:07:53;;;;;;;13.60;2.55;;;30.70;24.00;;;;;;5036416;28;20131;-57
2021/05/18 03:10:20;;;;;;;10.38;2.05;;;30.60;24.10;;;;;;5043103;28;20101;-58
2021/05/18 03:12:47;;;;;;;10.02;2.13;;;30.50;24.20;;;;;;5039627;28;20101;-57
2021/05/18 03:15:15;;;;;;;9.30;1.80;;;30.50;24.40;;;;;;5044678;28;20085;-57
2021/05/18 03:17:42;;;;;;;9.60;1.92;;;30.50;24.50;;;;;;5047721;28;20077;-56
2021/05/18 03:20:14;;;;;;;18.92;2.80;;;30.40;24.50;;;;;;5044646;28;20086;-53
2021/05/18 03:22:44;;;;;;;13.25;1.95;;;30.40;24.70;;;;;;5042458;28;20074;-55
2021/05/18 03:25:11;;;;;;;11.15;1.77;;;30.30;24.60;;;;;;5044890;28;20070;-53
2021/05/18 03:27:38;;;;;;;25.70;2.28;;;30.30;24.70;;;;;;5047670;28;20427;-55
2021/05/18 03:30:50;;;;;;;20.05;2.50;;;30.20;24.70;;;;;;5044447;28;20126;-53
2021/05/18 03:35:46;;;;;;;17.45;2.33;;;30.10;24.80;;;;;;5046144;28;20084;-57
2021/05/18 03:38:25;;;;;;;19.42;2.15;;;30.10;24.80;;;;;;5045556;28;20132;-56
2021/05/18 03:40:55;;;;;;;21.77;2.55;;;30.00;24.70;;;;;;5046362;28;20070;-56
2021/05/18 03:43:39;;;;;;;25.55;2.45;;;30.00;24.70;;;;;;5043284;28;20078;-55
2021/05/18 04:10:49;;;;;;;31.10;3.55;;;29.50;25.00;;;;;;5042632;28;20113;-59
2021/05/18 04:17:03;;;;;;;38.05;3.28;;;29.50;25.10;;;;;;5041264;28;20561;-56
2021/05/18 04:18:46;;;;;;;29.83;2.35;;;29.50;25.20;;;;;;5026665;28;20548;-59
2021/05/18 04:21:21;;;;;;;23.48;3.03;;;29.40;25.30;;;;;;5043121;28;20087;-57
2021/05/18 04:24:03;;;;;;;31.02;3.08;;;29.40;25.40;;;;;;5036361;28;20511;-57
2021/05/18 04:26:55;;;;;;;29.08;2.90;;;29.30;25.50;;;;;;5038435;28;20082;-56
2021/05/18 04:54:02;;;;;;;16.90;5.40;;;28.80;26.60;;;;;;5041023;28;20174;-57
2021/05/18 04:59:14;;;;;;;21.70;3.72;;;28.80;26.90;;;;;;5040516;28;20077;-53
2021/05/18 05:07:05;;;;;;;11.00;2.70;;;28.60;27.20;;;;;;5041716;28;20072;-56
2021/05/18 05:09:34;;;;;;;14.18;2.65;;;28.50;27.30;;;;;;5040715;28;20097;-54
2021/05/18 05:14:42;;;;;;;22.05;2.90;;;28.40;27.40;;;;;;5037679;28;20112;-57
2021/05/18 05:17:09;;;;;;;21.40;3.88;;;28.40;27.50;;;;;;5038326;28;20077;-51
2021/05/18 05:19:36;;;;;;;26.73;3.15;;;28.30;27.50;;;;;;5039489;28;20077;-52
2021/05/18 05:22:04;;;;;;;41.03;4.57;;;28.30;27.60;;;;;;5037056;28;20074;-56
2021/05/18 05:24:32;;;;;;;25.15;4.00;;;28.30;27.70;;;;;;5043069;28;20451;-54
2021/05/18 05:26:59;;;;;;;42.92;4.22;;;28.20;27.70;;;;;;5036992;28;20070;-57
2021/05/18 05:29:26;;;;;;;20.02;3.72;;;28.20;27.90;;;;;;5039486;28;20143;-56
2021/05/18 05:31:55;;;;;;;23.55;4.00;;;28.10;27.80;;;;;;5039860;28;20066;-53
2021/05/18 05:34:22;;;;;;;25.50;4.15;;;28.10;27.70;;;;;;5037226;28;20082;-56
2021/05/18 05:36:49;;;;;;;27.67;3.42;;;28.00;27.70;;;;;;5038687;28;20070;-53
2021/05/18 05:39:22;;;;;;;17.67;2.75;;;28.00;27.80;;;;;;5038002;28;20074;-56
2021/05/18 05:41:54;;;;;;;12.85;2.45;;;27.90;27.90;;;;;;5041711;28;20065;-53
2021/05/18 05:44:21;;;;;;;9.57;2.17;;;27.90;28.00;;;;;;5034472;28;20074;-59
2021/05/18 05:46:51;;;;;;;10.35;1.90;;;27.80;28.10;;;;;;5038365;28;20074;-52
2021/05/18 05:49:17;;;;;;;9.60;1.90;;;27.80;28.30;;;;;;5039874;28;20094;-57
2021/05/18 05:51:47;;;;;;;9.30;2.05;;;27.70;28.50;;;;;;5037892;28;20084;-56
2021/05/18 05:54:13;;;;;;;8.25;1.77;;;27.70;28.60;;;;;;5034349;28;20200;-54
2021/05/18 05:56:40;;;;;;;10.48;1.88;;;27.60;28.60;;;;;;5038185;28;20161;-57
2021/05/18 05:59:08;;;;;;;12.40;2.20;;;27.60;29.40;;;;;;5043142;28;20497;-56
2021/05/18 06:01:35;;;;;;;8.63;1.52;;;27.60;29.30;;;;;;5038570;28;20170;-53
2021/05/18 06:04:02;;;;;;;6.53;1.75;;;27.50;29.50;;;;;;5038189;28;20073;-54
2021/05/18 06:06:28;;;;;;;8.45;1.95;;;27.40;29.60;;;;;;5036683;28;20564;-55
2021/05/18 06:08:55;;;;;;;8.25;1.77;;;27.40;29.50;;;;;;5040203;28;20089;-54
2021/05/18 06:36:49;;;;;;;11.57;2.45;;;26.80;30.40;;;;;;5035457;28;20073;-55
2021/05/18 06:43:36;;;;;;;13.88;2.85;;;26.70;30.80;;;;;;5037446;28;20165;-57
2021/05/18 06:48:29;;;;;;;9.93;2.78;;;26.50;31.40;;;;;;5040857;28;20083;-52
2021/05/18 06:50:56;;;;;;;17.90;2.75;;;26.50;31.40;;;;;;5040416;28;20490;-57
2021/05/18 06:53:22;;;;;;;8.98;2.60;;;26.40;31.60;;;;;;5043302;28;20471;-55
2021/05/18 06:55:51;;;;;;;9.25;2.40;;;26.40;32.60;;;;;;5040654;28;20156;-53
2021/05/18 07:01:22;;;;;;;12.98;2.08;;;26.30;32.50;;;;;;5019300;28;20085;-53
2021/05/18 07:03:52;;;;;;;7.47;1.95;;;26.20;32.30;;;;;;5044509;28;20069;-52
2021/05/18 07:08:58;;;;;;;11.70;2.42;;;26.20;32.70;;;;;;5044317;28;20062;-54
2021/05/18 07:11:25;;;;;;;4.43;2.15;;;26.20;33.50;;;;;;5040367;28;20496;-56
2021/05/18 07:13:52;;;;;;;11.48;2.10;;;26.10;33.10;;;;;;5044221;28;20077;-54
2021/05/18 07:16:19;;;;;;;12.85;2.58;;;26.10;33.40;;;;;;5042036;28;20607;-55
2021/05/18 07:18:46;;;;;;;10.25;2.65;;;26.20;33.80;;;;;;5039614;28;20088;-56
2021/05/18 07:21:13;;;;;;;10.93;2.50;;;26.10;34.00;;;;;;5042005;28;20187;-53
2021/05/18 07:23:40;;;;;;;12.38;2.55;;;26.20;33.60;;;;;;5041695;28;20080;-54
2021/05/18 07:26:07;;;;;;;11.55;2.75;;;26.10;33.50;;;;;;5041442;28;20113;-54
2021/05/18 07:28:35;;;;;;;12.52;2.30;;;26.00;33.50;;;;;;5043635;28;21416;-53
2021/05/18 07:31:04;;;;;;;18.60;3.20;;;25.90;33.50;;;;;;5052524;28;20102;-52
2021/05/18 07:33:31;;;;;;;18.20;3.10;;;25.90;33.90;;;;;;5042048;28;20074;-52
2021/05/18 07:36:01;;;;;;;16.83;2.95;;;25.90;33.80;;;;;;5041717;28;20156;-54
2021/05/18 07:38:28;;;;;;;17.00;3.75;;;25.90;34.10;;;;;;5039041;28;20093;-56
2021/05/18 07:40:55;;;;;;;16.95;3.00;;;25.80;33.90;;;;;;5036374;28;20078;-52
2021/05/18 07:43:22;;;;;;;15.45;3.00;;;25.80;34.20;;;;;;5040822;28;20074;-53
2021/05/18 07:46:00;;;;;;;21.00;3.35;;;25.80;34.50;;;;;;5043313;28;20115;-53
2021/05/18 08:07:11;;;;;;;27.23;4.90;;;25.50;35.30;;;;;;5039857;28;20084;-55
2021/05/18 08:09:43;;;;;;;23.80;5.25;;;25.50;35.60;;;;;;5057500;28;20185;-56
2021/05/18 08:12:10;;;;;;;22.30;4.85;;;25.40;36.20;;;;;;5038732;28;20501;-55
2021/05/18 08:14:41;;;;;;;29.65;5.55;;;25.40;36.80;;;;;;5039109;28;20450;-56
2021/05/18 08:20:51;;;;;;;30.13;5.80;;;25.30;38.00;;;;;;5040803;28;20493;-54
2021/05/18 08:22:58;;;;;;;23.85;5.55;;;25.30;38.10;;;;;;5023276;28;20082;-53
2021/05/18 10:34:32;;;;;;;24.45;5.82;;;23.40;51.20;;;;;;5041852;28;20123;-55
2021/05/18 10:37:42;;;;;;;12.00;3.95;;;23.50;51.20;;;;;;5042178;28;20147;-54
2021/05/18 10:40:26;;;;;;;19.45;4.28;;;23.40;50.70;;;;;;5038853;28;20131;-54
2021/05/18 10:43:11;;;;;;;22.27;5.05;;;23.40;51.20;;;;;;5042418;28;20070;-54
2021/05/18 10:46:07;;;;;;;17.60;4.80;;;23.50;51.30;;;;;;5040258;28;20085;-54
2021/05/18 10:48:36;;;;;;;24.55;5.13;;;23.40;51.00;;;;;;5038067;28;20090;-55
2021/05/18 10:51:21;;;;;;;16.40;4.70;;;23.40;51.40;;;;;;5040284;28;20578;-55
2021/05/18 10:54:22;;;;;;;26.58;6.63;;;23.40;51.10;;;;;;5040802;28;20204;-56
2021/05/18 10:57:04;;;;;;;22.83;6.70;;;23.30;51.30;;;;;;5042402;28;20077;-55
2021/05/18 10:59:32;;;;;;;22.73;7.65;;;23.40;51.50;;;;;;5041256;28;20116;-54
2021/05/18 11:02:00;;;;;;;22.05;7.07;;;23.30;51.20;;;;;;5041055;28;20187;-54
2021/05/18 11:04:28;;;;;;;21.15;6.57;;;23.20;51.50;;;;;;5037617;28;20078;-54
2021/05/18 11:06:56;;;;;;;21.27;7.28;;;23.20;51.90;;;;;;5041817;28;20086;-54
2021/05/18 11:09:25;;;;;;;30.67;8.30;;;23.20;52.00;;;;;;5039418;28;20110;-53
2021/05/18 11:12:18;;;;;;;29.80;11.55;;;23.20;52.50;;;;;;5040901;28;20092;-53
2021/05/18 11:15:07;;;;;;;47.97;18.30;;;23.30;52.90;;;;;;5039456;28;20096;-55
2021/05/18 11:17:37;;;;;;;53.42;22.15;;;23.30;53.60;;;;;;5038100;28;20085;-55
2021/05/18 11:21:06;;;;;;;50.17;23.30;;;23.30;54.00;;;;;;5039820;28;20081;-57
2021/05/18 11:26:08;;;;;;;55.85;28.63;;;23.20;53.90;;;;;;5039145;28;20513;-53
2021/05/18 11:28:40;;;;;;;64.03;30.27;;;23.00;54.50;;;;;;5042936;28;20085;-55
2021/05/18 11:31:08;;;;;;;56.08;24.63;;;22.90;55.80;;;;;;5039357;28;20558;-58
2021/05/18 11:33:42;;;;;;;42.83;19.17;;;22.80;56.70;;;;;;5039556;28;20080;-52
2021/05/18 11:36:15;;;;;;;50.13;17.77;;;22.80;57.50;;;;;;5039475;28;20078;-51
2021/05/18 11:39:10;;;;;;;25.70;11.32;;;22.70;58.00;;;;;;5042451;28;20086;-53
2021/05/18 11:41:40;;;;;;;21.70;8.85;;;22.60;58.80;;;;;;5040096;28;20084;-53
2021/05/18 11:44:11;;;;;;;23.27;8.98;;;22.60;59.70;;;;;;5041262;28;20074;-53
2021/05/18 11:46:46;;;;;;;22.38;6.88;;;22.60;59.90;;;;;;5037730;28;20086;-55
2021/05/18 11:49:14;;;;;;;18.88;5.13;;;22.60;60.60;;;;;;5037885;28;20078;-51
2021/05/18 11:51:45;;;;;;;19.13;5.07;;;22.60;60.90;;;;;;5041532;28;20531;-51
2021/05/18 11:54:16;;;;;;;12.70;4.10;;;22.50;61.20;;;;;;5041147;28;20109;-55
2021/05/18 11:56:44;;;;;;;13.38;4.15;;;22.50;61.40;;;;;;5043170;28;20100;-54
2021/05/18 11:59:16;;;;;;;20.10;3.85;;;22.50;61.00;;;;;;5040312;28;20069;-57
2021/05/18 12:02:03;;;;;;;14.90;3.83;;;22.50;60.50;;;;;;5036294;28;20077;-52
2021/05/18 12:04:30;;;;;;;18.35;3.47;;;22.50;59.20;;;;;;5039696;28;20501;-56
2021/05/18 12:07:12;;;;;;;11.25;3.60;;;22.40;58.60;;;;;;5042475;28;20159;-55
2021/05/18 12:09:43;;;;;;;16.83;3.97;;;22.40;57.80;;;;;;5037194;28;20101;-54
2021/05/18 12:12:19;;;;;;;16.85;3.10;;;22.30;56.70;;;;;;5035678;28;20152;-55
2021/05/18 12:14:48;;;;;;;13.07;2.63;;;22.30;54.90;;;;;;5040573;28;20089;-53
2021/05/18 12:17:24;;;;;;;16.52;3.25;;;22.20;54.60;;;;;;5039122;28;20108;-53
2021/05/18 12:19:51;;;;;;;13.60;2.40;;;22.10;54.80;;;;;;5040396;28;20078;-57
2021/05/18 12:22:17;;;;;;;9.80;2.78;;;22.00;54.80;;;;;;5036483;28;20532;-58
2021/05/18 12:24:44;;;;;;;12.18;3.13;;;22.10;54.40;;;;;;5040783;28;20466;-56
2021/05/18 12:27:11;;;;;;;10.52;2.67;;;22.10;53.40;;;;;;5036851;28;20070;-57
2021/05/18 12:29:55;;;;;;;14.40;2.70;;;22.20;53.40;;;;;;5039146;28;20541;-57
2021/05/18 12:32:36;;;;;;;8.15;2.92;;;22.20;53.70;;;;;;5041996;28;20079;-53
2021/05/18 12:35:06;;;;;;;9.45;2.72;;;22.20;54.30;;;;;;5038488;28;20435;-57
2021/05/18 12:37:44;;;;;;;14.00;2.83;;;22.20;53.50;;;;;;5039034;28;20077;-57
2021/05/18 12:40:34;;;;;;;9.85;2.55;;;22.20;54.20;;;;;;5038892;28;20081;-57
2021/05/18 12:43:11;;;;;;;19.95;3.40;;;22.20;54.20;;;;;;5040660;28;20662;-54
2021/05/18 12:45:39;;;;;;;11.25;2.92;;;22.20;53.90;;;;;;5039748;28;20662;-57
2021/05/18 12:48:08;;;;;;;13.90;2.85;;;22.20;53.70;;;;;;5037168;28;20097;-57
2021/05/18 12:50:48;;;;;;;11.57;2.90;;;22.20;51.90;;;;;;5040205;28;20101;-57
2021/05/18 12:53:29;;;;;;;20.13;3.05;;;22.20;51.00;;;;;;5037632;28;20124;-56
2021/05/18 12:55:56;;;;;;;12.27;3.08;;;22.20;51.00;;;;;;5040351;28;20100;-58
2021/05/18 12:58:31;;;;;;;13.13;3.10;;;22.10;50.40;;;;;;5039114;28;20066;-56
2021/05/18 13:01:13;;;;;;;15.23;2.70;;;22.10;50.60;;;;;;5039432;28;20088;-59
2021/05/18 13:03:42;;;;;;;16.60;3.63;;;22.20;50.50;;;;;;5037087;28;20531;-55
2021/05/18 13:06:10;;;;;;;17.52;3.40;;;22.10;50.20;;;;;;5036377;28;20431;-57
2021/05/18 13:08:41;;;;;;;21.13;3.55;;;22.10;49.90;;;;;;5035226;28;20090;-55
2021/05/18 13:11:16;;;;;;;14.95;3.30;;;22.20;50.10;;;;;;5036880;28;20097;-57
2021/05/18 13:13:42;;;;;;;13.30;2.85;;;22.20;50.20;;;;;;5039712;28;20495;-55
2021/05/18 13:16:11;;;;;;;11.00;2.72;;;22.20;50.10;;;;;;5038510;28;20160;-56
2021/05/18 13:18:52;;;;;;;12.93;3.13;;;22.20;50.70;;;;;;5038103;28;20124;-56
2021/05/18 13:21:24;;;;;;;13.48;3.13;;;22.20;50.60;;;;;;5036987;28;20074;-55
2021/05/18 13:24:01;;;;;;;14.20;3.30;;;22.30;50.10;;;;;;5037661;28;20577;-56
2021/05/18 13:26:29;;;;;;;14.05;3.58;;;22.30;49.70;;;;;;5037255;28;20074;-56
2021/05/18 13:29:01;;;;;;;19.35;3.90;;;22.20;49.30;;;;;;5038750;28;20089;-56
2021/05/18 13:31:29;;;;;;;16.10;3.58;;;22.20;49.90;;;;;;5037081;28;20104;-53
2021/05/18 13:33:57;;;;;;;18.02;3.20;;;22.30;49.90;;;;;;5037966;28;20151;-55
2021/05/18 13:36:31;;;;;;;19.38;3.58;;;22.30;48.90;;;;;;5036079;28;20074;-57
2021/05/18 13:38:59;;;;;;;15.45;3.72;;;22.40;48.70;;;;;;5036467;28;20069;-56
2021/05/18 13:41:26;;;;;;;17.52;3.90;;;22.40;48.10;;;;;;5035284;28;20078;-54
2021/05/18 13:43:52;;;;;;;12.80;3.45;;;22.40;48.60;;;;;;5040072;28;20472;-56
2021/05/18 13:46:19;;;;;;;16.60;4.15;;;22.40;48.40;;;;;;5037269;28;20524;-54
2021/05/18 13:48:45;;;;;;;13.35;3.55;;;22.50;48.70;;;;;;5039953;28;20085;-56
2021/05/18 13:51:16;;;;;;;22.08;3.60;;;22.50;48.00;;;;;;5036670;28;20126;-57
2021/05/18 13:53:44;;;;;;;14.30;3.53;;;22.60;48.50;;;;;;5039030;28;20113;-57
2021/05/18 13:56:11;;;;;;;14.50;3.22;;;22.60;47.90;;;;;;5039919;28;20093;-55
2021/05/18 13:58:37;;;;;;;13.10;3.17;;;22.70;47.90;;;;;;5036020;28;20081;-58
2021/05/18 14:01:05;;;;;;;18.55;3.20;;;22.60;48.10;;;;;;5039244;28;20139;-57
2021/05/18 14:03:33;;;;;;;13.27;3.50;;;22.60;48.10;;;;;;5035714;28;20089;-57
2021/05/18 14:05:59;;;;;;;18.33;3.42;;;22.70;48.10;;;;;;5038420;28;20155;-54
2021/05/18 14:11:09;;;;;;;18.75;3.63;;;22.90;47.20;;;;;;5038214;28;20497;-51
2021/05/18 14:13:39;;;;;;;19.17;3.45;;;23.00;47.10;;;;;;5038258;28;20561;-53
2021/05/18 14:16:09;;;;;;;17.80;3.25;;;23.10;46.90;;;;;;5039056;28;20082;-54
2021/05/18 14:18:36;;;;;;;16.02;3.65;;;23.20;46.20;;;;;;5040367;28;20093;-50
2021/05/18 14:21:05;;;;;;;19.83;3.45;;;23.30;46.20;;;;;;5037772;28;20123;-55
2021/05/18 14:26:10;;;;;;;11.98;3.35;;;23.40;46.50;;;;;;5035749;28;20066;-57
2021/05/18 14:28:38;;;;;;;20.52;3.38;;;23.50;45.60;;;;;;5035413;28;20453;-52
2021/05/18 14:31:07;;;;;;;17.73;3.28;;;23.60;45.70;;;;;;5038399;28;20440;-54
2021/05/18 14:33:35;;;;;;;12.02;3.00;;;23.70;45.50;;;;;;5037394;28;20092;-53
2021/05/18 14:36:03;;;;;;;17.58;3.25;;;23.80;44.80;;;;;;5040866;28;20146;-54
2021/05/18 14:38:30;;;;;;;19.55;3.42;;;23.90;44.90;;;;;;5038932;28;20081;-54
2021/05/18 14:46:33;;;;;;;19.30;3.90;;;24.70;43.40;;;;;;5038252;28;20131;-53
2021/05/18 14:57:03;;;;;;;19.80;4.45;;;25.70;40.20;;;;;;5040380;28;20092;-53
2021/05/18 14:59:30;;;;;;;13.20;3.90;;;26.00;39.50;;;;;;5036656;28;20077;-53
2021/05/18 15:01:56;;;;;;;11.35;4.18;;;26.30;38.40;;;;;;5038150;28;20470;-52
2021/05/18 15:04:23;;;;;;;11.75;4.10;;;26.40;37.90;;;;;;5042260;28;20524;-57
2021/05/18 15:06:49;;;;;;;16.48;3.83;;;26.70;37.20;;;;;;5038609;28;20504;-55
2021/05/18 15:09:16;;;;;;;22.13;4.57;;;26.80;37.00;;;;;;5040481;28;20443;-56
2021/05/18 15:11:43;;;;;;;14.60;4.15;;;26.90;37.10;;;;;;5043445;28;20101;-56
2021/05/18 15:14:10;;;;;;;29.92;4.50;;;27.00;37.30;;;;;;5042328;28;20650;-57
2021/05/18 15:16:37;;;;;;;19.23;4.13;;;27.00;37.60;;;;;;5042435;28;20408;-54
2021/05/18 15:19:07;;;;;;;11.25;3.70;;;27.10;36.80;;;;;;5042952;28;20546;-57
2021/05/18 15:21:34;;;;;;;17.17;4.10;;;27.30;36.90;;;;;;5037450;28;20078;-58
2021/05/18 15:24:01;;;;;;;15.32;2.72;;;27.60;35.00;;;;;;5043823;28;20090;-56
2021/05/18 15:26:28;;;;;;;5.45;2.25;;;27.80;33.90;;;;;;5040878;28;20486;-55
2021/05/18 15:28:55;;;;;;;12.77;2.60;;;28.10;33.80;;;;;;5043613;28;20105;-54
2021/05/18 15:31:22;;;;;;;11.23;2.65;;;28.40;33.20;;;;;;5041464;28;20567;-58
2021/05/18 15:33:48;;;;;;;14.13;2.40;;;28.40;32.30;;;;;;5041873;28;20070;-59
2021/05/18 15:36:15;;;;;;;12.63;2.53;;;28.60;32.70;;;;;;5041577;28;20109;-53
2021/05/18 15:38:44;;;;;;;7.05;2.25;;;28.80;32.10;;;;;;5038361;28;20078;-56
2021/05/18 15:41:13;;;;;;;7.05;2.40;;;28.90;31.90;;;;;;5044716;28;20086;-53
2021/05/18 15:43:39;;;;;;;8.05;2.38;;;28.90;31.10;;;;;;5039229;28;20093;-59
2021/05/18 15:46:06;;;;;;;46.83;3.72;;;28.90;31.50;;;;;;5042175;28;20086;-55
2021/05/18 15:48:33;;;;;;;33.80;3.55;;;29.20;31.10;;;;;;5043629;28;20074;-60
2021/05/18 15:51:01;;;;;;;72.47;5.63;;;29.70;30.70;;;;;;5039877;28;20120;-57
2021/05/18 15:53:27;;;;;;;7.80;2.47;;;29.60;30.00;;;;;;5040940;28;20196;-56
2021/05/18 15:55:54;;;;;;;7.63;2.25;;;29.40;30.50;;;;;;5042425;28;20108;-54
2021/05/18 15:58:20;;;;;;;10.05;2.28;;;29.40;30.90;;;;;;5039478;28;20069;-58
2021/05/18 16:00:48;;;;;;;7.72;2.13;;;29.80;29.50;;;;;;5042483;28;20423;-55
2021/05/18 16:03:15;;;;;;;12.48;2.10;;;30.10;28.60;;;;;;5041303;28;20092;-57
2021/05/18 16:05:42;;;;;;;8.45;2.10;;;30.10;28.70;;;;;;5040850;28;20073;-57
2021/05/18 16:10:58;;;;;;;5.68;1.88;;;30.30;28.10;;;;;;5042622;28;20490;-59
2021/05/18 16:13:25;;;;;;;88.35;8.25;;;30.10;28.30;;;;;;5041348;28;20120;-55
2021/05/18 16:15:53;;;;;;;19.45;2.60;;;30.10;28.80;;;;;;5038248;28;20105;-57
2021/05/18 16:18:19;;;;;;;10.93;2.03;;;30.40;28.80;;;;;;5041472;28;20100;-59
2021/05/18 16:20:46;;;;;;;9.77;2.38;;;30.80;28.30;;;;;;5037900;28;20165;-57
2021/05/18 16:23:12;;;;;;;12.45;2.50;;;31.10;28.10;;;;;;5040103;28;20124;-56
2021/05/18 16:25:39;;;;;;;10.35;2.60;;;31.40;27.80;;;;;;5037417;28;20101;-59
2021/05/18 16:28:05;;;;;;;13.55;2.13;;;31.70;27.90;;;;;;5039984;28;20074;-56
2021/05/18 16:30:32;;;;;;;5.28;2.30;;;31.70;27.60;;;;;;5037729;28;20106;-61
2021/05/18 16:32:58;;;;;;;9.55;2.40;;;31.60;27.30;;;;;;5039696;28;20098;-54
2021/05/18 16:35:25;;;;;;;10.68;1.95;;;31.50;27.30;;;;;;5041613;28;20085;-56
2021/05/18 16:37:52;;;;;;;16.63;2.65;;;31.60;27.00;;;;;;5039013;28;20428;-57
2021/05/18 16:40:18;;;;;;;11.20;2.10;;;31.40;27.10;;;;;;5042977;28;20101;-54
2021/05/18 16:42:45;;;;;;;5.40;1.90;;;31.60;27.30;;;;;;5039588;28;20074;-53
2021/05/18 16:45:12;;;;;;;6.80;2.03;;;31.80;26.90;;;;;;5039690;28;20590;-57
2021/05/18 16:47:39;;;;;;;8.43;2.20;;;31.90;26.60;;;;;;5038428;28;20074;-54
2021/05/18 16:50:08;;;;;;;11.25;1.67;;;31.90;26.80;;;;;;5040355;28;20606;-58
2021/05/18 16:52:37;;;;;;;6.70;2.30;;;31.80;27.10;;;;;;5037651;28;20660;-55
2021/05/18 16:55:05;;;;;;;8.55;2.55;;;32.10;27.00;;;;;;5039684;28;20544;-57
2021/05/18 16:57:32;;;;;;;6.72;2.22;;;32.30;26.10;;;;;;5037275;28;20479;-57
2021/05/18 16:59:59;;;;;;;6.03;1.77;;;32.10;26.00;;;;;;5040529;28;20081;-56
2021/05/18 17:02:25;;;;;;;12.43;2.28;;;32.10;26.20;;;;;;5040671;28;20092;-64
2021/05/18 17:04:52;;;;;;;9.93;2.05;;;32.00;26.90;;;;;;5038271;28;20197;-64
2021/05/18 17:07:19;;;;;;;9.85;2.60;;;32.40;26.60;;;;;;5040169;28;20089;-64
2021/05/18 17:09:45;;;;;;;10.63;2.53;;;32.50;26.40;;;;;;5038207;28;20110;-63
2021/05/18 17:12:18;;;;;;;17.05;2.63;;;32.90;26.20;;;;;;5039450;28;20542;-64
2021/05/18 17:14:45;;;;;;;10.57;2.38;;;33.30;26.00;;;;;;5038804;28;20077;-64
2021/05/18 17:17:14;;;;;;;9.18;2.15;;;33.00;25.50;;;;;;5039868;28;20080;-64
2021/05/18 17:19:41;;;;;;;11.00;1.80;;;33.30;25.60;;;;;;5033141;28;20161;-65
2021/05/18 17:22:09;;;;;;;11.70;2.28;;;33.50;25.30;;;;;;5039015;28;20128;-63
2021/05/18 17:24:36;;;;;;;7.07;2.10;;;33.80;25.40;;;;;;5035264;28;20088;-64
2021/05/18 17:27:03;;;;;;;9.20;2.17;;;33.80;25.00;;;;;;5038357;28;20065;-65
2021/05/18 17:29:31;;;;;;;10.35;2.08;;;33.90;25.30;;;;;;5039766;28;20164;-64
2021/05/18 17:31:58;;;;;;;7.25;2.00;;;34.00;25.10;;;;;;5040347;28;20089;-63
2021/05/18 17:34:25;;;;;;;11.82;1.80;;;34.40;24.90;;;;;;5038428;28;20186;-65
2021/05/18 17:36:52;;;;;;;16.33;2.25;;;34.60;24.40;;;;;;5041385;28;20081;-65
2021/05/18 17:39:21;;;;;;;8.80;2.05;;;34.20;24.50;;;;;;5038156;28;20084;-63
2021/05/18 17:41:48;;;;;;;12.45;1.80;;;34.40;24.30;;;;;;5039768;28;20101;-63
2021/05/18 17:44:16;;;;;;;7.00;1.98;;;34.30;24.70;;;;;;5038044;28;20070;-64
2021/05/18 17:46:44;;;;;;;9.85;2.00;;;34.40;24.60;;;;;;5038509;28;20077;-63
2021/05/18 17:49:14;;;;;;;6.70;1.95;;;34.40;24.10;;;;;;5037577;28;20523;-64
2021/05/18 17:51:41;;;;;;;10.07;2.47;;;34.40;24.00;;;;;;5040867;28;20104;-63
2021/05/18 17:54:08;;;;;;;5.47;1.92;;;33.90;24.40;;;;;;5035966;28;20130;-62
2021/05/18 17:56:34;;;;;;;13.50;2.53;;;34.00;24.70;;;;;;5036970;28;20532;-62